sensor_id;sensor_type;location;lat;lon;timestamp;P1;durP1;ratioP1;P2;durP2;ratioP2
54193;SDS011;40102;50.906;6.972;2024-02-16T00:00:55;1.65;;;1.17;;
54193;SDS011;40102;50.906;6.972;2024-02-16T00:03:25;2.88;;;1.08;;
54193;SDS011;40102;50.906;6.972;2024-02-16T00:05:54;3.70;;;1.10;;
54193;SDS011;40102;50.906;6.972;2024-02-16T00:08:20;2.50;;;1.10;;
54193;SDS011;40102;50.906;6.972;2024-02-16T00:10:47;3.05;;;1.10;;
54193;SDS011;40102;50.906;6.972;2024-02-16T00:13:13;2.80;;;1.20;;
54193;SDS011;40102;50.906;6.972;2024-02-16T00:15:39;2.28;;;1.15;;
54193;SDS011;40102;50.906;6.972;2024-02-16T00:18:05;1.85;;;1.15;;
54193;SDS011;40102;50.906;6.972;2024-02-16T00:20:31;2.35;;;1.30;;
54193;SDS011;40102;50.906;6.972;2024-02-16T00:22:57;2.75;;;1.20;;
54193;SDS011;40102;50.906;6.972;2024-02-16T00:25:24;2.35;;;1.17;;
54193;SDS011;40102;50.906;6.972;2024-02-16T00:27:49;2.97;;;1.40;;
54193;SDS011;40102;50.906;6.972;2024-02-16T00:30:18;1.50;;;1.00;;
54193;SDS011;40102;50.906;6.972;2024-02-16T00:32:43;3.88;;;1.20;;
54193;SDS011;40102;50.906;6.972;2024-02-16T00:35:10;3.67;;;1.17;;
54193;SDS011;40102;50.906;6.972;2024-02-16T00:37:36;1.70;;;1.10;;
54193;SDS011;40102;50.906;6.972;2024-02-16T00:40:03;2.70;;;1.00;;
54193;SDS011;40102;50.906;6.972;2024-02-16T00:42:29;4.15;;;1.27;;
54193;SDS011;40102;50.906;6.972;2024-02-16T00:44:56;2.35;;;1.30;;
54193;SDS011;40102;50.906;6.972;2024-02-16T00:47:29;3.20;;;1.30;;
54193;SDS011;40102;50.906;6.972;2024-02-16T00:49:54;1.92;;;1.00;;
54193;SDS011;40102;50.906;6.972;2024-02-16T00:52:20;2.65;;;1.25;;
54193;SDS011;40102;50.906;6.972;2024-02-16T00:54:46;2.20;;;1.20;;
54193;SDS011;40102;50.906;6.972;2024-02-16T00:57:11;3.72;;;1.20;;
54193;SDS011;40102;50.906;6.972;2024-02-16T00:59:39;2.15;;;1.10;;
54193;SDS011;40102;50.906;6.972;2024-02-16T01:02:05;1.90;;;1.00;;
54193;SDS011;40102;50.906;6.972;2024-02-16T01:04:30;4.28;;;1.10;;
54193;SDS011;40102;50.906;6.972;2024-02-16T01:06:56;2.78;;;1.30;;
54193;SDS011;40102;50.906;6.972;2024-02-16T01:09:22;2.88;;;1.08;;
54193;SDS011;40102;50.906;6.972;2024-02-16T01:11:47;2.95;;;1.10;;
54193;SDS011;40102;50.906;6.972;2024-02-16T01:14:12;2.75;;;1.00;;
54193;SDS011;40102;50.906;6.972;2024-02-16T01:16:38;3.25;;;1.13;;
54193;SDS011;40102;50.906;6.972;2024-02-16T01:19:03;3.50;;;1.20;;
54193;SDS011;40102;50.906;6.972;2024-02-16T01:21:31;3.35;;;1.27;;
54193;SDS011;40102;50.906;6.972;2024-02-16T01:23:56;3.20;;;1.58;;
54193;SDS011;40102;50.906;6.972;2024-02-16T01:26:24;2.35;;;1.27;;
54193;SDS011;40102;50.906;6.972;2024-02-16T01:28:50;2.22;;;1.00;;
54193;SDS011;40102;50.906;6.972;2024-02-16T01:31:15;4.15;;;1.10;;
54193;SDS011;40102;50.906;6.972;2024-02-16T01:33:41;2.55;;;1.02;;
54193;SDS011;40102;50.906;6.972;2024-02-16T01:36:07;3.20;;;1.10;;
54193;SDS011;40102;50.906;6.972;2024-02-16T01:38:32;1.83;;;1.00;;
54193;SDS011;40102;50.906;6.972;2024-02-16T01:40:58;2.78;;;1.20;;
54193;SDS011;40102;50.906;6.972;2024-02-16T01:43:23;3.33;;;1.13;;
54193;SDS011;40102;50.906;6.972;2024-02-16T01:45:49;4.50;;;1.20;;
54193;SDS011;40102;50.906;6.972;2024-02-16T01:48:14;1.95;;;1.10;;
54193;SDS011;40102;50.906;6.972;2024-02-16T01:50:43;1.98;;;1.05;;
54193;SDS011;40102;50.906;6.972;2024-02-16T01:53:13;4.60;;;1.20;;
54193;SDS011;40102;50.906;6.972;2024-02-16T01:55:43;2.72;;;1.10;;
54193;SDS011;40102;50.906;6.972;2024-02-16T01:58:13;2.58;;;1.10;;
54193;SDS011;40102;50.906;6.972;2024-02-16T02:00:39;1.83;;;1.00;;
54193;SDS011;40102;50.906;6.972;2024-02-16T02:03:06;2.00;;;0.95;;
54193;SDS011;40102;50.906;6.972;2024-02-16T02:05:32;3.85;;;1.30;;
54193;SDS011;40102;50.906;6.972;2024-02-16T02:08:08;2.13;;;1.05;;
54193;SDS011;40102;50.906;6.972;2024-02-16T02:10:34;1.45;;;1.00;;
54193;SDS011;40102;50.906;6.972;2024-02-16T02:12:59;2.25;;;1.20;;
54193;SDS011;40102;50.906;6.972;2024-02-16T02:15:25;2.03;;;1.10;;
54193;SDS011;40102;50.906;6.972;2024-02-16T02:17:50;2.63;;;1.23;;
54193;SDS011;40102;50.906;6.972;2024-02-16T02:20:17;2.72;;;1.30;;
54193;SDS011;40102;50.906;6.972;2024-02-16T02:22:42;4.32;;;1.30;;
54193;SDS011;40102;50.906;6.972;2024-02-16T02:25:08;4.53;;;1.52;;
54193;SDS011;40102;50.906;6.972;2024-02-16T02:27:36;4.45;;;1.40;;
54193;SDS011;40102;50.906;6.972;2024-02-16T02:30:02;2.83;;;1.10;;
54193;SDS011;40102;50.906;6.972;2024-02-16T02:32:28;1.92;;;1.10;;
54193;SDS011;40102;50.906;6.972;2024-02-16T02:34:54;2.83;;;1.30;;
54193;SDS011;40102;50.906;6.972;2024-02-16T02:37:20;2.10;;;1.05;;
54193;SDS011;40102;50.906;6.972;2024-02-16T02:39:45;1.73;;;0.98;;
54193;SDS011;40102;50.906;6.972;2024-02-16T02:42:11;1.85;;;1.08;;
54193;SDS011;40102;50.906;6.972;2024-02-16T02:44:37;1.98;;;1.02;;
54193;SDS011;40102;50.906;6.972;2024-02-16T02:47:03;2.20;;;0.90;;
54193;SDS011;40102;50.906;6.972;2024-02-16T02:49:28;2.35;;;1.25;;
54193;SDS011;40102;50.906;6.972;2024-02-16T02:51:53;3.25;;;0.98;;
54193;SDS011;40102;50.906;6.972;2024-02-16T02:54:19;1.55;;;0.98;;
54193;SDS011;40102;50.906;6.972;2024-02-16T02:56:44;2.38;;;1.13;;
54193;SDS011;40102;50.906;6.972;2024-02-16T02:59:10;3.45;;;1.23;;
54193;SDS011;40102;50.906;6.972;2024-02-16T03:01:36;3.00;;;1.45;;
54193;SDS011;40102;50.906;6.972;2024-02-16T03:04:02;2.47;;;1.23;;
54193;SDS011;40102;50.906;6.972;2024-02-16T03:06:28;3.30;;;1.13;;
54193;SDS011;40102;50.906;6.972;2024-02-16T03:08:54;2.28;;;0.95;;
54193;SDS011;40102;50.906;6.972;2024-02-16T03:11:19;3.75;;;1.23;;
54193;SDS011;40102;50.906;6.972;2024-02-16T03:13:45;4.30;;;1.30;;
54193;SDS011;40102;50.906;6.972;2024-02-16T03:16:11;3.63;;;1.20;;
54193;SDS011;40102;50.906;6.972;2024-02-16T03:18:36;4.88;;;1.30;;
54193;SDS011;40102;50.906;6.972;2024-02-16T03:21:02;2.58;;;1.20;;
54193;SDS011;40102;50.906;6.972;2024-02-16T03:23:28;1.95;;;1.20;;
54193;SDS011;40102;50.906;6.972;2024-02-16T03:25:54;1.90;;;1.17;;
54193;SDS011;40102;50.906;6.972;2024-02-16T03:28:20;2.92;;;1.42;;
54193;SDS011;40102;50.906;6.972;2024-02-16T03:30:45;2.95;;;1.25;;
54193;SDS011;40102;50.906;6.972;2024-02-16T03:33:11;2.22;;;1.20;;
54193;SDS011;40102;50.906;6.972;2024-02-16T03:35:38;3.22;;;1.38;;
54193;SDS011;40102;50.906;6.972;2024-02-16T03:38:03;2.63;;;1.20;;
54193;SDS011;40102;50.906;6.972;2024-02-16T03:40:30;2.45;;;1.13;;
54193;SDS011;40102;50.906;6.972;2024-02-16T03:42:55;3.72;;;1.30;;
54193;SDS011;40102;50.906;6.972;2024-02-16T03:45:20;2.38;;;1.35;;
54193;SDS011;40102;50.906;6.972;2024-02-16T03:47:46;1.83;;;1.10;;
54193;SDS011;40102;50.906;6.972;2024-02-16T03:50:13;3.55;;;1.30;;
54193;SDS011;40102;50.906;6.972;2024-02-16T03:52:40;2.45;;;1.27;;
54193;SDS011;40102;50.906;6.972;2024-02-16T03:55:06;4.15;;;1.65;;
54193;SDS011;40102;50.906;6.972;2024-02-16T03:57:32;2.17;;;1.20;;
54193;SDS011;40102;50.906;6.972;2024-02-16T03:59:57;3.22;;;1.27;;
54193;SDS011;40102;50.906;6.972;2024-02-16T04:02:23;3.10;;;1.30;;
54193;SDS011;40102;50.906;6.972;2024-02-16T04:04:49;6.28;;;1.58;;
54193;SDS011;40102;50.906;6.972;2024-02-16T04:07:15;2.47;;;1.50;;
54193;SDS011;40102;50.906;6.972;2024-02-16T04:09:42;4.63;;;1.30;;
54193;SDS011;40102;50.906;6.972;2024-02-16T04:12:07;2.05;;;1.20;;
54193;SDS011;40102;50.906;6.972;2024-02-16T04:14:33;3.10;;;1.25;;
54193;SDS011;40102;50.906;6.972;2024-02-16T04:16:59;2.92;;;1.30;;
54193;SDS011;40102;50.906;6.972;2024-02-16T04:19:28;3.95;;;1.50;;
54193;SDS011;40102;50.906;6.972;2024-02-16T04:21:54;3.40;;;1.25;;
54193;SDS011;40102;50.906;6.972;2024-02-16T04:24:20;4.97;;;1.38;;
54193;SDS011;40102;50.906;6.972;2024-02-16T04:26:46;1.88;;;1.30;;
54193;SDS011;40102;50.906;6.972;2024-02-16T04:29:11;3.83;;;1.48;;
54193;SDS011;40102;50.906;6.972;2024-02-16T04:31:40;3.53;;;1.45;;
54193;SDS011;40102;50.906;6.972;2024-02-16T04:34:11;5.45;;;1.40;;
54193;SDS011;40102;50.906;6.972;2024-02-16T04:36:37;3.05;;;1.35;;
54193;SDS011;40102;50.906;6.972;2024-02-16T04:39:03;3.17;;;1.30;;
54193;SDS011;40102;50.906;6.972;2024-02-16T04:41:28;3.63;;;1.30;;
54193;SDS011;40102;50.906;6.972;2024-02-16T04:43:54;3.70;;;1.33;;
54193;SDS011;40102;50.906;6.972;2024-02-16T04:46:20;3.33;;;1.42;;
54193;SDS011;40102;50.906;6.972;2024-02-16T04:48:48;3.88;;;1.50;;
54193;SDS011;40102;50.906;6.972;2024-02-16T04:51:14;2.67;;;1.48;;
54193;SDS011;40102;50.906;6.972;2024-02-16T04:53:39;3.92;;;1.33;;
54193;SDS011;40102;50.906;6.972;2024-02-16T04:56:05;1.90;;;1.40;;
54193;SDS011;40102;50.906;6.972;2024-02-16T04:58:31;3.70;;;1.30;;
54193;SDS011;40102;50.906;6.972;2024-02-16T05:03:32;4.70;;;1.40;;
54193;SDS011;40102;50.906;6.972;2024-02-16T05:05:58;2.83;;;1.48;;
54193;SDS011;40102;50.906;6.972;2024-02-16T05:08:25;3.53;;;1.77;;
54193;SDS011;40102;50.906;6.972;2024-02-16T05:10:51;4.13;;;1.50;;
54193;SDS011;40102;50.906;6.972;2024-02-16T05:13:17;3.45;;;1.58;;
54193;SDS011;40102;50.906;6.972;2024-02-16T05:15:42;5.05;;;2.05;;
54193;SDS011;40102;50.906;6.972;2024-02-16T05:18:08;3.45;;;1.70;;
54193;SDS011;40102;50.906;6.972;2024-02-16T05:20:37;4.30;;;1.73;;
54193;SDS011;40102;50.906;6.972;2024-02-16T05:23:03;2.78;;;1.75;;
54193;SDS011;40102;50.906;6.972;2024-02-16T05:25:28;3.92;;;1.50;;
54193;SDS011;40102;50.906;6.972;2024-02-16T05:27:55;3.70;;;1.60;;
54193;SDS011;40102;50.906;6.972;2024-02-16T05:30:20;3.45;;;1.65;;
54193;SDS011;40102;50.906;6.972;2024-02-16T05:32:46;3.03;;;1.70;;
54193;SDS011;40102;50.906;6.972;2024-02-16T05:35:11;3.50;;;1.70;;
54193;SDS011;40102;50.906;6.972;2024-02-16T05:37:38;2.38;;;1.50;;
54193;SDS011;40102;50.906;6.972;2024-02-16T05:40:13;2.75;;;1.63;;
54193;SDS011;40102;50.906;6.972;2024-02-16T05:42:55;3.08;;;1.75;;
54193;SDS011;40102;50.906;6.972;2024-02-16T05:45:23;5.63;;;1.70;;
54193;SDS011;40102;50.906;6.972;2024-02-16T05:47:49;4.15;;;1.65;;
54193;SDS011;40102;50.906;6.972;2024-02-16T05:50:16;3.97;;;1.60;;
54193;SDS011;40102;50.906;6.972;2024-02-16T05:52:42;2.08;;;1.42;;
54193;SDS011;40102;50.906;6.972;2024-02-16T05:55:10;4.15;;;1.60;;
54193;SDS011;40102;50.906;6.972;2024-02-16T05:57:36;5.22;;;1.60;;
54193;SDS011;40102;50.906;6.972;2024-02-16T06:00:06;4.38;;;1.40;;
54193;SDS011;40102;50.906;6.972;2024-02-16T06:02:34;3.25;;;1.63;;
54193;SDS011;40102;50.906;6.972;2024-02-16T06:05:00;5.05;;;1.55;;
54193;SDS011;40102;50.906;6.972;2024-02-16T06:07:27;3.60;;;1.58;;
54193;SDS011;40102;50.906;6.972;2024-02-16T06:09:56;6.13;;;1.63;;
54193;SDS011;40102;50.906;6.972;2024-02-16T06:12:22;5.10;;;1.58;;
54193;SDS011;40102;50.906;6.972;2024-02-16T06:14:48;6.95;;;1.42;;
54193;SDS011;40102;50.906;6.972;2024-02-16T06:17:14;2.47;;;1.45;;
54193;SDS011;40102;50.906;6.972;2024-02-16T06:19:43;4.38;;;1.80;;
54193;SDS011;40102;50.906;6.972;2024-02-16T06:22:08;4.78;;;1.48;;
54193;SDS011;40102;50.906;6.972;2024-02-16T06:24:35;2.90;;;1.52;;
54193;SDS011;40102;50.906;6.972;2024-02-16T06:27:01;2.33;;;1.40;;
54193;SDS011;40102;50.906;6.972;2024-02-16T06:29:26;2.85;;;1.58;;
54193;SDS011;40102;50.906;6.972;2024-02-16T06:31:52;5.00;;;1.67;;
54193;SDS011;40102;50.906;6.972;2024-02-16T06:34:18;3.95;;;1.48;;
54193;SDS011;40102;50.906;6.972;2024-02-16T06:36:44;3.28;;;1.58;;
54193;SDS011;40102;50.906;6.972;2024-02-16T06:39:10;4.55;;;1.63;;
54193;SDS011;40102;50.906;6.972;2024-02-16T06:41:41;2.05;;;1.60;;
54193;SDS011;40102;50.906;6.972;2024-02-16T06:44:09;2.15;;;1.42;;
54193;SDS011;40102;50.906;6.972;2024-02-16T06:46:34;4.50;;;1.65;;
54193;SDS011;40102;50.906;6.972;2024-02-16T06:49:00;5.75;;;1.85;;
54193;SDS011;40102;50.906;6.972;2024-02-16T06:51:25;4.30;;;1.70;;
54193;SDS011;40102;50.906;6.972;2024-02-16T06:53:53;4.30;;;1.50;;
54193;SDS011;40102;50.906;6.972;2024-02-16T06:56:19;4.53;;;1.50;;
54193;SDS011;40102;50.906;6.972;2024-02-16T06:58:45;4.68;;;1.40;;
54193;SDS011;40102;50.906;6.972;2024-02-16T07:01:14;3.38;;;1.50;;
54193;SDS011;40102;50.906;6.972;2024-02-16T07:03:40;3.88;;;1.35;;
54193;SDS011;40102;50.906;6.972;2024-02-16T07:06:06;2.00;;;1.25;;
54193;SDS011;40102;50.906;6.972;2024-02-16T07:08:37;3.63;;;1.95;;
54193;SDS011;40102;50.906;6.972;2024-02-16T07:11:03;5.43;;;1.55;;
54193;SDS011;40102;50.906;6.972;2024-02-16T07:13:30;3.05;;;1.45;;
54193;SDS011;40102;50.906;6.972;2024-02-16T07:15:59;3.75;;;1.38;;
54193;SDS011;40102;50.906;6.972;2024-02-16T07:18:24;2.63;;;1.45;;
54193;SDS011;40102;50.906;6.972;2024-02-16T07:20:50;2.92;;;1.50;;
54193;SDS011;40102;50.906;6.972;2024-02-16T07:23:15;4.28;;;1.40;;
54193;SDS011;40102;50.906;6.972;2024-02-16T07:25:41;3.15;;;1.75;;
54193;SDS011;40102;50.906;6.972;2024-02-16T07:28:07;4.10;;;1.42;;
54193;SDS011;40102;50.906;6.972;2024-02-16T07:30:35;5.20;;;1.55;;
54193;SDS011;40102;50.906;6.972;2024-02-16T07:33:05;3.17;;;1.33;;
54193;SDS011;40102;50.906;6.972;2024-02-16T07:35:32;3.10;;;1.40;;
54193;SDS011;40102;50.906;6.972;2024-02-16T07:38:00;2.97;;;1.40;;
54193;SDS011;40102;50.906;6.972;2024-02-16T07:40:27;3.20;;;1.50;;
54193;SDS011;40102;50.906;6.972;2024-02-16T07:42:53;2.63;;;1.67;;
54193;SDS011;40102;50.906;6.972;2024-02-16T07:45:19;3.65;;;1.40;;
54193;SDS011;40102;50.906;6.972;2024-02-16T07:47:45;2.63;;;1.45;;
54193;SDS011;40102;50.906;6.972;2024-02-16T07:50:11;2.85;;;1.70;;
54193;SDS011;40102;50.906;6.972;2024-02-16T07:52:37;4.97;;;2.08;;
54193;SDS011;40102;50.906;6.972;2024-02-16T07:55:04;2.38;;;1.50;;
54193;SDS011;40102;50.906;6.972;2024-02-16T07:57:31;3.72;;;1.70;;
54193;SDS011;40102;50.906;6.972;2024-02-16T07:59:57;4.40;;;1.75;;
54193;SDS011;40102;50.906;6.972;2024-02-16T08:02:22;4.70;;;1.60;;
54193;SDS011;40102;50.906;6.972;2024-02-16T08:04:48;2.95;;;1.55;;
54193;SDS011;40102;50.906;6.972;2024-02-16T08:07:14;4.32;;;1.50;;
54193;SDS011;40102;50.906;6.972;2024-02-16T08:09:40;6.50;;;1.80;;
54193;SDS011;40102;50.906;6.972;2024-02-16T08:12:09;3.78;;;1.50;;
54193;SDS011;40102;50.906;6.972;2024-02-16T08:14:34;3.28;;;1.35;;
54193;SDS011;40102;50.906;6.972;2024-02-16T08:17:00;3.30;;;1.63;;
54193;SDS011;40102;50.906;6.972;2024-02-16T08:19:31;2.35;;;1.42;;
54193;SDS011;40102;50.906;6.972;2024-02-16T08:22:01;3.42;;;1.50;;
54193;SDS011;40102;50.906;6.972;2024-02-16T08:24:28;3.20;;;1.60;;
54193;SDS011;40102;50.906;6.972;2024-02-16T08:26:53;4.20;;;1.52;;
54193;SDS011;40102;50.906;6.972;2024-02-16T08:29:19;2.80;;;1.27;;
54193;SDS011;40102;50.906;6.972;2024-02-16T08:31:47;4.13;;;1.40;;
54193;SDS011;40102;50.906;6.972;2024-02-16T08:34:14;3.92;;;1.52;;
54193;SDS011;40102;50.906;6.972;2024-02-16T08:36:43;3.30;;;1.60;;
54193;SDS011;40102;50.906;6.972;2024-02-16T08:39:09;2.60;;;1.35;;
54193;SDS011;40102;50.906;6.972;2024-02-16T08:41:36;5.18;;;1.95;;
54193;SDS011;40102;50.906;6.972;2024-02-16T08:44:02;4.50;;;1.58;;
54193;SDS011;40102;50.906;6.972;2024-02-16T08:46:28;5.20;;;1.95;;
54193;SDS011;40102;50.906;6.972;2024-02-16T08:48:54;4.57;;;1.70;;
54193;SDS011;40102;50.906;6.972;2024-02-16T08:51:20;3.85;;;1.42;;
54193;SDS011;40102;50.906;6.972;2024-02-16T08:53:46;5.07;;;1.50;;
54193;SDS011;40102;50.906;6.972;2024-02-16T08:56:12;5.30;;;1.77;;
54193;SDS011;40102;50.906;6.972;2024-02-16T08:58:38;4.53;;;1.55;;
54193;SDS011;40102;50.906;6.972;2024-02-16T09:01:04;3.22;;;1.90;;
54193;SDS011;40102;50.906;6.972;2024-02-16T09:03:30;6.88;;;1.75;;
54193;SDS011;40102;50.906;6.972;2024-02-16T09:06:03;3.42;;;1.45;;
54193;SDS011;40102;50.906;6.972;2024-02-16T09:08:30;2.90;;;1.52;;
54193;SDS011;40102;50.906;6.972;2024-02-16T09:11:03;2.72;;;1.45;;
54193;SDS011;40102;50.906;6.972;2024-02-16T09:13:32;5.00;;;1.55;;
54193;SDS011;40102;50.906;6.972;2024-02-16T09:15:58;2.83;;;1.67;;
54193;SDS011;40102;50.906;6.972;2024-02-16T09:18:23;2.75;;;1.50;;
54193;SDS011;40102;50.906;6.972;2024-02-16T09:20:48;7.32;;;2.15;;
54193;SDS011;40102;50.906;6.972;2024-02-16T09:23:14;3.65;;;1.50;;
54193;SDS011;40102;50.906;6.972;2024-02-16T09:25:39;3.50;;;1.90;;
54193;SDS011;40102;50.906;6.972;2024-02-16T09:28:06;3.72;;;1.70;;
54193;SDS011;40102;50.906;6.972;2024-02-16T09:30:32;4.28;;;1.63;;
54193;SDS011;40102;50.906;6.972;2024-02-16T09:32:58;2.65;;;1.60;;
54193;SDS011;40102;50.906;6.972;2024-02-16T09:35:23;5.95;;;1.80;;
54193;SDS011;40102;50.906;6.972;2024-02-16T09:37:49;4.43;;;1.75;;
54193;SDS011;40102;50.906;6.972;2024-02-16T09:40:14;3.45;;;1.50;;
54193;SDS011;40102;50.906;6.972;2024-02-16T09:42:40;4.40;;;1.70;;
54193;SDS011;40102;50.906;6.972;2024-02-16T09:45:06;6.57;;;1.67;;
54193;SDS011;40102;50.906;6.972;2024-02-16T09:47:32;4.13;;;1.48;;
54193;SDS011;40102;50.906;6.972;2024-02-16T09:49:59;5.00;;;2.08;;
54193;SDS011;40102;50.906;6.972;2024-02-16T09:52:25;4.10;;;1.95;;
54193;SDS011;40102;50.906;6.972;2024-02-16T09:54:51;3.88;;;1.60;;
54193;SDS011;40102;50.906;6.972;2024-02-16T09:57:17;3.53;;;1.70;;
54193;SDS011;40102;50.906;6.972;2024-02-16T09:59:44;5.20;;;1.45;;
54193;SDS011;40102;50.906;6.972;2024-02-16T10:02:09;4.43;;;1.65;;
54193;SDS011;40102;50.906;6.972;2024-02-16T10:04:35;3.80;;;1.70;;
54193;SDS011;40102;50.906;6.972;2024-02-16T10:07:01;5.00;;;2.20;;
54193;SDS011;40102;50.906;6.972;2024-02-16T10:09:28;4.00;;;1.80;;
54193;SDS011;40102;50.906;6.972;2024-02-16T10:11:54;3.05;;;1.70;;
54193;SDS011;40102;50.906;6.972;2024-02-16T10:14:20;5.63;;;1.90;;
54193;SDS011;40102;50.906;6.972;2024-02-16T10:16:46;3.83;;;1.75;;
54193;SDS011;40102;50.906;6.972;2024-02-16T10:19:13;4.22;;;1.67;;
54193;SDS011;40102;50.906;6.972;2024-02-16T10:21:39;4.47;;;1.90;;
54193;SDS011;40102;50.906;6.972;2024-02-16T10:24:06;4.38;;;1.58;;
54193;SDS011;40102;50.906;6.972;2024-02-16T10:26:37;3.83;;;1.90;;
54193;SDS011;40102;50.906;6.972;2024-02-16T10:29:04;3.45;;;1.70;;
54193;SDS011;40102;50.906;6.972;2024-02-16T10:31:36;2.15;;;1.58;;
54193;SDS011;40102;50.906;6.972;2024-02-16T10:34:03;6.45;;;2.10;;
54193;SDS011;40102;50.906;6.972;2024-02-16T10:36:37;6.10;;;2.05;;
54193;SDS011;40102;50.906;6.972;2024-02-16T10:39:05;3.80;;;1.77;;
54193;SDS011;40102;50.906;6.972;2024-02-16T10:41:34;4.75;;;1.98;;
54193;SDS011;40102;50.906;6.972;2024-02-16T10:44:02;3.67;;;2.03;;
54193;SDS011;40102;50.906;6.972;2024-02-16T10:46:29;4.57;;;1.95;;
54193;SDS011;40102;50.906;6.972;2024-02-16T10:48:55;4.22;;;2.00;;
54193;SDS011;40102;50.906;6.972;2024-02-16T10:52:04;3.80;;;1.90;;
54193;SDS011;40102;50.906;6.972;2024-02-16T10:54:13;4.22;;;1.85;;
54193;SDS011;40102;50.906;6.972;2024-02-16T10:59:09;5.18;;;2.22;;
54193;SDS011;40102;50.906;6.972;2024-02-16T11:01:41;4.38;;;1.88;;
54193;SDS011;40102;50.906;6.972;2024-02-16T11:04:10;4.03;;;1.90;;
54193;SDS011;40102;50.906;6.972;2024-02-16T11:09:29;4.43;;;2.05;;
54193;SDS011;40102;50.906;6.972;2024-02-16T11:11:58;4.60;;;1.92;;
54193;SDS011;40102;50.906;6.972;2024-02-16T11:14:41;11.77;;;2.33;;
54193;SDS011;40102;50.906;6.972;2024-02-16T11:17:11;9.05;;;2.50;;
54193;SDS011;40102;50.906;6.972;2024-02-16T11:19:41;9.70;;;2.60;;
54193;SDS011;40102;50.906;6.972;2024-02-16T11:22:11;5.63;;;2.10;;
54193;SDS011;40102;50.906;6.972;2024-02-16T11:24:45;4.40;;;2.03;;
54193;SDS011;40102;50.906;6.972;2024-02-16T11:27:12;5.38;;;1.98;;
54193;SDS011;40102;50.906;6.972;2024-02-16T11:29:38;4.30;;;2.05;;
54193;SDS011;40102;50.906;6.972;2024-02-16T11:32:05;9.43;;;2.35;;
54193;SDS011;40102;50.906;6.972;2024-02-16T11:34:31;4.75;;;2.00;;
54193;SDS011;40102;50.906;6.972;2024-02-16T11:36:59;4.65;;;2.55;;
54193;SDS011;40102;50.906;6.972;2024-02-16T11:39:26;5.60;;;2.83;;
54193;SDS011;40102;50.906;6.972;2024-02-16T11:44:31;5.18;;;1.95;;
54193;SDS011;40102;50.906;6.972;2024-02-16T11:46:58;4.68;;;2.10;;
54193;SDS011;40102;50.906;6.972;2024-02-16T11:49:24;5.95;;;1.95;;
54193;SDS011;40102;50.906;6.972;2024-02-16T11:51:50;4.05;;;1.83;;
54193;SDS011;40102;50.906;6.972;2024-02-16T11:54:15;4.15;;;1.92;;
54193;SDS011;40102;50.906;6.972;2024-02-16T11:56:44;5.18;;;2.20;;
54193;SDS011;40102;50.906;6.972;2024-02-16T11:59:14;4.68;;;2.00;;
54193;SDS011;40102;50.906;6.972;2024-02-16T12:01:53;4.80;;;2.20;;
54193;SDS011;40102;50.906;6.972;2024-02-16T12:04:23;4.32;;;2.30;;
54193;SDS011;40102;50.906;6.972;2024-02-16T12:07:07;4.93;;;2.03;;
54193;SDS011;40102;50.906;6.972;2024-02-16T12:09:33;4.82;;;1.90;;
54193;SDS011;40102;50.906;6.972;2024-02-16T12:11:59;4.53;;;2.28;;
54193;SDS011;40102;50.906;6.972;2024-02-16T12:14:25;4.43;;;1.80;;
54193;SDS011;40102;50.906;6.972;2024-02-16T12:16:51;5.15;;;2.40;;
54193;SDS011;40102;50.906;6.972;2024-02-16T12:19:20;4.00;;;2.20;;
54193;SDS011;40102;50.906;6.972;2024-02-16T12:21:53;6.00;;;2.50;;
54193;SDS011;40102;50.906;6.972;2024-02-16T12:24:20;5.85;;;2.47;;
54193;SDS011;40102;50.906;6.972;2024-02-16T12:26:46;5.60;;;2.08;;
54193;SDS011;40102;50.906;6.972;2024-02-16T12:29:11;6.32;;;2.30;;
54193;SDS011;40102;50.906;6.972;2024-02-16T12:31:41;4.30;;;2.20;;
54193;SDS011;40102;50.906;6.972;2024-02-16T12:34:08;9.35;;;2.75;;
54193;SDS011;40102;50.906;6.972;2024-02-16T12:36:34;6.70;;;2.78;;
54193;SDS011;40102;50.906;6.972;2024-02-16T12:39:00;6.97;;;2.65;;
54193;SDS011;40102;50.906;6.972;2024-02-16T12:41:26;6.20;;;2.20;;
54193;SDS011;40102;50.906;6.972;2024-02-16T12:43:52;6.93;;;2.70;;
54193;SDS011;40102;50.906;6.972;2024-02-16T12:46:18;5.40;;;2.65;;
54193;SDS011;40102;50.906;6.972;2024-02-16T12:48:47;9.43;;;3.83;;
54193;SDS011;40102;50.906;6.972;2024-02-16T12:51:12;6.80;;;2.65;;
54193;SDS011;40102;50.906;6.972;2024-02-16T12:53:37;12.27;;;2.70;;
54193;SDS011;40102;50.906;6.972;2024-02-16T12:56:08;3.65;;;2.50;;
54193;SDS011;40102;50.906;6.972;2024-02-16T12:58:37;4.47;;;2.28;;
54193;SDS011;40102;50.906;6.972;2024-02-16T13:01:03;7.10;;;2.30;;
54193;SDS011;40102;50.906;6.972;2024-02-16T13:03:35;5.15;;;2.28;;
54193;SDS011;40102;50.906;6.972;2024-02-16T13:06:01;7.20;;;2.30;;
54193;SDS011;40102;50.906;6.972;2024-02-16T13:08:28;4.93;;;2.72;;
54193;SDS011;40102;50.906;6.972;2024-02-16T13:10:54;5.18;;;2.55;;
54193;SDS011;40102;50.906;6.972;2024-02-16T13:13:19;4.60;;;2.40;;
54193;SDS011;40102;50.906;6.972;2024-02-16T13:15:45;4.32;;;2.40;;
54193;SDS011;40102;50.906;6.972;2024-02-16T13:18:12;4.93;;;2.22;;
54193;SDS011;40102;50.906;6.972;2024-02-16T13:20:38;7.53;;;2.20;;
54193;SDS011;40102;50.906;6.972;2024-02-16T13:23:03;4.00;;;2.17;;
54193;SDS011;40102;50.906;6.972;2024-02-16T13:25:28;6.13;;;2.20;;
54193;SDS011;40102;50.906;6.972;2024-02-16T13:27:54;4.28;;;1.88;;
54193;SDS011;40102;50.906;6.972;2024-02-16T13:30:19;4.97;;;2.15;;
54193;SDS011;40102;50.906;6.972;2024-02-16T13:32:45;4.28;;;2.42;;
54193;SDS011;40102;50.906;6.972;2024-02-16T13:35:10;4.55;;;2.50;;
54193;SDS011;40102;50.906;6.972;2024-02-16T13:37:35;5.43;;;2.70;;
54193;SDS011;40102;50.906;6.972;2024-02-16T13:40:02;4.78;;;2.42;;
54193;SDS011;40102;50.906;6.972;2024-02-16T13:42:31;7.80;;;2.40;;
54193;SDS011;40102;50.906;6.972;2024-02-16T13:44:57;3.10;;;2.17;;
54193;SDS011;40102;50.906;6.972;2024-02-16T13:47:23;6.05;;;2.63;;
54193;SDS011;40102;50.906;6.972;2024-02-16T13:49:48;4.78;;;2.35;;
54193;SDS011;40102;50.906;6.972;2024-02-16T13:52:15;7.03;;;2.60;;
54193;SDS011;40102;50.906;6.972;2024-02-16T13:54:40;4.78;;;2.20;;
54193;SDS011;40102;50.906;6.972;2024-02-16T13:57:06;4.47;;;2.53;;
54193;SDS011;40102;50.906;6.972;2024-02-16T13:59:31;4.38;;;2.60;;
54193;SDS011;40102;50.906;6.972;2024-02-16T14:01:58;5.68;;;2.60;;
54193;SDS011;40102;50.906;6.972;2024-02-16T14:04:24;4.65;;;2.63;;
54193;SDS011;40102;50.906;6.972;2024-02-16T14:06:51;10.07;;;2.53;;
54193;SDS011;40102;50.906;6.972;2024-02-16T14:09:17;9.35;;;2.97;;
54193;SDS011;40102;50.906;6.972;2024-02-16T14:11:44;7.03;;;3.58;;
54193;SDS011;40102;50.906;6.972;2024-02-16T14:14:10;9.13;;;3.08;;
54193;SDS011;40102;50.906;6.972;2024-02-16T14:16:35;7.07;;;3.40;;
54193;SDS011;40102;50.906;6.972;2024-02-16T14:19:01;5.25;;;2.60;;
54193;SDS011;40102;50.906;6.972;2024-02-16T14:21:26;6.20;;;2.95;;
54193;SDS011;40102;50.906;6.972;2024-02-16T14:23:52;9.80;;;2.72;;
54193;SDS011;40102;50.906;6.972;2024-02-16T14:26:17;6.97;;;2.85;;
54193;SDS011;40102;50.906;6.972;2024-02-16T14:28:44;10.95;;;4.55;;
54193;SDS011;40102;50.906;6.972;2024-02-16T14:31:09;5.07;;;2.97;;
54193;SDS011;40102;50.906;6.972;2024-02-16T14:33:35;7.28;;;2.58;;
54193;SDS011;40102;50.906;6.972;2024-02-16T14:36:03;5.30;;;2.70;;
54193;SDS011;40102;50.906;6.972;2024-02-16T14:38:29;6.88;;;3.30;;
54193;SDS011;40102;50.906;6.972;2024-02-16T14:40:55;7.28;;;3.40;;
54193;SDS011;40102;50.906;6.972;2024-02-16T14:43:21;5.07;;;2.83;;
54193;SDS011;40102;50.906;6.972;2024-02-16T14:45:46;6.65;;;3.28;;
54193;SDS011;40102;50.906;6.972;2024-02-16T14:48:12;5.97;;;2.95;;
54193;SDS011;40102;50.906;6.972;2024-02-16T14:50:37;6.45;;;3.22;;
54193;SDS011;40102;50.906;6.972;2024-02-16T14:53:02;6.95;;;3.10;;
54193;SDS011;40102;50.906;6.972;2024-02-16T14:55:28;5.32;;;2.95;;